N305SD KIWA-KP13
Flight info
| Callsign | N305SD |
|---|---|
| Flight time | N/A |
| Altitude | 9000 |
| Route | VFR |
| Aircraft | C208/L-SDFGR/C |
Departure
| Time | 2026-04-28 01:02 |
|---|---|
| Airport | Mesa Gateway Airport (KIWA) |
Arrival
| Time | N/A |
|---|---|
| Airport | KP13 |
| Time | Latitude | Longitude | Altitude | Speed | Heading |
|---|---|---|---|---|---|
| 2026-04-28 00:50 | 33.31196 | -111.66945 | 1363 ft | 0 kts | 135° |
| 2026-04-28 00:55 | 33.31194 | -111.66943 | 1362 ft | 2 kts | 134° |
| 2026-04-28 00:55 | 33.31177 | -111.66915 | 1362 ft | 6 kts | 93° |
| 2026-04-28 00:55 | 33.31156 | -111.66857 | 1361 ft | 10 kts | 135° |
| 2026-04-28 00:55 | 33.31103 | -111.66794 | 1362 ft | 12 kts | 135° |
| 2026-04-28 00:56 | 33.31088 | -111.66703 | 1361 ft | 13 kts | 119° |
| 2026-04-28 00:56 | 33.31023 | -111.66626 | 1362 ft | 13 kts | 135° |
| 2026-04-28 00:56 | 33.30959 | -111.66550 | 1362 ft | 13 kts | 135° |
| 2026-04-28 00:56 | 33.30894 | -111.66474 | 1358 ft | 14 kts | 135° |
| 2026-04-28 00:57 | 33.30823 | -111.66393 | 1364 ft | 15 kts | 137° |
| 2026-04-28 00:57 | 33.30749 | -111.66305 | 1364 ft | 16 kts | 136° |
| 2026-04-28 00:57 | 33.30669 | -111.66213 | 1364 ft | 16 kts | 135° |
| 2026-04-28 00:57 | 33.30589 | -111.66119 | 1364 ft | 16 kts | 136° |
| 2026-04-28 00:58 | 33.30508 | -111.66023 | 1364 ft | 17 kts | 134° |
| 2026-04-28 00:58 | 33.30423 | -111.65924 | 1365 ft | 17 kts | 137° |
| 2026-04-28 00:58 | 33.30339 | -111.65829 | 1365 ft | 17 kts | 136° |
| 2026-04-28 00:58 | 33.30255 | -111.65730 | 1366 ft | 17 kts | 136° |
| 2026-04-28 00:59 | 33.30169 | -111.65629 | 1366 ft | 18 kts | 135° |
| 2026-04-28 00:59 | 33.30079 | -111.65524 | 1366 ft | 19 kts | 135° |
| 2026-04-28 00:59 | 33.29985 | -111.65413 | 1366 ft | 19 kts | 135° |
| 2026-04-28 00:59 | 33.29892 | -111.65306 | 1366 ft | 19 kts | 136° |
| 2026-04-28 01:00 | 33.29797 | -111.65197 | 1367 ft | 19 kts | 136° |
| 2026-04-28 01:00 | 33.29703 | -111.65088 | 1367 ft | 19 kts | 136° |
| 2026-04-28 01:00 | 33.29692 | -111.64965 | 1371 ft | 15 kts | 45° |
| 2026-04-28 01:00 | 33.29778 | -111.64976 | 1372 ft | 14 kts | 315° |
| 2026-04-28 01:01 | 33.29892 | -111.65108 | 1371 ft | 48 kts | 315° |
| 2026-04-28 01:01 | 33.30273 | -111.65528 | 1422 ft | 90 kts | 316° |
| 2026-04-28 01:01 | 33.30729 | -111.66034 | 1672 ft | 91 kts | 313° |
| 2026-04-28 01:01 | 33.31198 | -111.66605 | 1916 ft | 98 kts | 310° |
| 2026-04-28 01:02 | 33.31666 | -111.67213 | 2184 ft | 102 kts | 311° |
| 2026-04-28 01:02 | 33.32232 | -111.67681 | 2421 ft | 108 kts | 352° |
| 2026-04-28 01:02 | 33.32886 | -111.67223 | 2658 ft | 118 kts | 60° |
| 2026-04-28 01:02 | 33.33216 | -111.66297 | 2803 ft | 124 kts | 81° |
| 2026-04-28 01:03 | 33.33295 | -111.65272 | 3065 ft | 125 kts | 88° |
| 2026-04-28 01:03 | 33.33369 | -111.64229 | 3306 ft | 127 kts | 86° |
| 2026-04-28 01:03 | 33.33436 | -111.63124 | 3421 ft | 143 kts | 86° |
| 2026-04-28 01:03 | 33.33526 | -111.61862 | 3427 ft | 159 kts | 85° |
| 2026-04-28 01:04 | 33.33622 | -111.60494 | 3434 ft | 171 kts | 86° |
| 2026-04-28 01:04 | 33.33733 | -111.59031 | 3425 ft | 181 kts | 85° |
| 2026-04-28 01:04 | 33.33829 | -111.57525 | 3435 ft | 183 kts | 86° |
| 2026-04-28 01:04 | 33.33940 | -111.55995 | 3379 ft | 185 kts | 87° |
| 2026-04-28 01:05 | 33.34067 | -111.54467 | 3376 ft | 185 kts | 85° |
| 2026-04-28 01:05 | 33.34196 | -111.52932 | 3380 ft | 186 kts | 85° |
| 2026-04-28 01:05 | 33.34318 | -111.51390 | 3375 ft | 185 kts | 85° |
| 2026-04-28 01:05 | 33.34432 | -111.49879 | 3453 ft | 177 kts | 85° |
| 2026-04-28 01:06 | 33.34539 | -111.48472 | 3727 ft | 164 kts | 86° |
| 2026-04-28 01:06 | 33.34642 | -111.47173 | 4060 ft | 150 kts | 85° |
| 2026-04-28 01:06 | 33.34738 | -111.45977 | 4410 ft | 140 kts | 85° |
| 2026-04-28 01:06 | 33.34836 | -111.44847 | 4743 ft | 132 kts | 85° |
| 2026-04-28 01:07 | 33.34929 | -111.43795 | 5072 ft | 123 kts | 84° |
| 2026-04-28 01:07 | 33.35018 | -111.42805 | 5415 ft | 117 kts | 85° |
| 2026-04-28 01:07 | 33.35106 | -111.41853 | 5759 ft | 113 kts | 84° |
| 2026-04-28 01:07 | 33.35185 | -111.40962 | 6094 ft | 103 kts | 86° |
| 2026-04-28 01:08 | 33.35258 | -111.40167 | 6391 ft | 96 kts | 85° |
| 2026-04-28 01:08 | 33.35363 | -111.39265 | 6500 ft | 112 kts | 81° |
| 2026-04-28 01:08 | 33.35515 | -111.38367 | 6756 ft | 115 kts | 87° |
| 2026-04-28 01:08 | 33.35622 | -111.37350 | 6876 ft | 130 kts | 85° |
| 2026-04-28 01:09 | 33.35742 | -111.36225 | 7004 ft | 142 kts | 85° |
| 2026-04-28 01:09 | 33.35872 | -111.35040 | 7217 ft | 143 kts | 86° |
| 2026-04-28 01:09 | 33.36011 | -111.33846 | 7381 ft | 151 kts | 85° |
| 2026-04-28 01:09 | 33.36161 | -111.32541 | 7395 ft | 164 kts | 85° |
| 2026-04-28 01:10 | 33.36328 | -111.31138 | 7391 ft | 175 kts | 85° |
| 2026-04-28 01:10 | 33.36497 | -111.29667 | 7373 ft | 181 kts | 85° |
| 2026-04-28 01:10 | 33.36600 | -111.28681 | 7397 ft | 180 kts | 86° |
| 2026-04-28 01:10 | 33.36811 | -111.26691 | 7400 ft | 184 kts | 85° |
| 2026-04-28 01:11 | 33.36919 | -111.25661 | 7411 ft | 186 kts | 85° |
| 2026-04-28 01:11 | 33.37143 | -111.23598 | 7380 ft | 190 kts | 85° |
| 2026-04-28 01:11 | 33.37307 | -111.22033 | 7387 ft | 189 kts | 86° |
| 2026-04-28 01:11 | 33.37475 | -111.20469 | 7384 ft | 189 kts | 85° |
| 2026-04-28 01:12 | 33.37641 | -111.18906 | 7391 ft | 189 kts | 85° |
| 2026-04-28 01:12 | 33.37807 | -111.17344 | 7386 ft | 190 kts | 85° |
| 2026-04-28 01:12 | 33.37978 | -111.15773 | 7391 ft | 191 kts | 85° |
| 2026-04-28 01:12 | 33.38146 | -111.14207 | 7393 ft | 187 kts | 85° |
| 2026-04-28 01:13 | 33.38317 | -111.12652 | 7395 ft | 190 kts | 85° |
| 2026-04-28 01:13 | 33.38670 | -111.09463 | 7391 ft | 197 kts | 85° |
| 2026-04-28 01:13 | 33.38845 | -111.07846 | 7400 ft | 194 kts | 85° |
| 2026-04-28 01:14 | 33.39005 | -111.06244 | 7395 ft | 194 kts | 85° |
| 2026-04-28 01:14 | 33.39169 | -111.04630 | 7391 ft | 197 kts | 85° |
| 2026-04-28 01:14 | 33.39350 | -111.03014 | 7394 ft | 196 kts | 84° |
| 2026-04-28 01:14 | 33.39523 | -111.01401 | 7402 ft | 195 kts | 86° |
| 2026-04-28 01:15 | 33.39702 | -110.99775 | 7402 ft | 198 kts | 86° |
| 2026-04-28 01:15 | 33.39883 | -110.98139 | 7402 ft | 199 kts | 86° |
| 2026-04-28 01:15 | 33.40068 | -110.96504 | 7401 ft | 197 kts | 86° |
| 2026-04-28 01:15 | 33.40253 | -110.94880 | 7396 ft | 197 kts | 85° |
| 2026-04-28 01:16 | 33.40434 | -110.93250 | 7402 ft | 198 kts | 85° |
| 2026-04-28 01:16 | 33.40615 | -110.91625 | 7394 ft | 196 kts | 86° |
| 2026-04-28 01:16 | 33.40804 | -110.90019 | 7398 ft | 195 kts | 85° |
| 2026-04-28 01:16 | 33.40992 | -110.88431 | 7402 ft | 195 kts | 85° |
| 2026-04-28 01:17 | 33.41175 | -110.86822 | 7389 ft | 195 kts | 85° |
| 2026-04-28 01:17 | 33.41361 | -110.85219 | 7387 ft | 194 kts | 85° |
| 2026-04-28 01:17 | 33.41550 | -110.83623 | 7386 ft | 193 kts | 85° |
| 2026-04-28 01:17 | 33.41730 | -110.82035 | 7396 ft | 193 kts | 85° |
| 2026-04-28 01:18 | 33.41922 | -110.80440 | 7376 ft | 193 kts | 86° |
| 2026-04-28 01:18 | 33.42123 | -110.78842 | 7317 ft | 198 kts | 84° |
| 2026-04-28 01:18 | 33.42304 | -110.77188 | 6958 ft | 201 kts | 86° |
| 2026-04-28 01:18 | 33.42479 | -110.75517 | 6596 ft | 205 kts | 85° |
| 2026-04-28 01:19 | 33.42645 | -110.73834 | 6244 ft | 202 kts | 85° |
| 2026-04-28 01:19 | 33.42687 | -110.72165 | 5868 ft | 199 kts | 93° |
| 2026-04-28 01:19 | 33.42631 | -110.70521 | 5491 ft | 196 kts | 94° |
| 2026-04-28 01:19 | 33.42571 | -110.68952 | 5402 ft | 180 kts | 93° |
| 2026-04-28 01:20 | 33.42511 | -110.67523 | 5390 ft | 166 kts | 95° |
| 2026-04-28 01:20 | 33.42484 | -110.66184 | 5391 ft | 157 kts | 95° |
| 2026-04-28 01:20 | 33.42450 | -110.64909 | 5388 ft | 150 kts | 96° |
| 2026-04-28 01:20 | 33.42412 | -110.63676 | 5386 ft | 146 kts | 95° |
| 2026-04-28 01:21 | 33.42392 | -110.62481 | 5385 ft | 142 kts | 94° |
| 2026-04-28 01:21 | 33.42366 | -110.61324 | 5396 ft | 136 kts | 94° |
| 2026-04-28 01:21 | 33.42338 | -110.60199 | 5396 ft | 134 kts | 96° |
| 2026-04-28 01:21 | 33.42339 | -110.59077 | 5398 ft | 134 kts | 91° |
| 2026-04-28 01:22 | 33.42328 | -110.57978 | 5391 ft | 132 kts | 95° |
| 2026-04-28 01:22 | 33.41993 | -110.57073 | 5399 ft | 114 kts | 155° |
| 2026-04-28 01:22 | 33.41295 | -110.56735 | 5407 ft | 106 kts | 177° |
| 2026-04-28 01:22 | 33.40571 | -110.56510 | 5405 ft | 107 kts | 174° |
| 2026-04-28 01:23 | 33.39878 | -110.56260 | 5392 ft | 102 kts | 174° |
| 2026-04-28 01:23 | 33.39218 | -110.56008 | 5388 ft | 97 kts | 173° |
| 2026-04-28 01:23 | 33.38596 | -110.55768 | 5371 ft | 91 kts | 173° |
| 2026-04-28 01:23 | 33.38011 | -110.55538 | 5396 ft | 90 kts | 175° |
| 2026-04-28 01:24 | 33.37407 | -110.55298 | 5402 ft | 95 kts | 171° |
| 2026-04-28 01:24 | 33.36752 | -110.55044 | 5393 ft | 101 kts | 171° |
| 2026-04-28 01:24 | 33.36065 | -110.54791 | 5391 ft | 103 kts | 181° |
| 2026-04-28 01:24 | 33.35405 | -110.54966 | 5400 ft | 94 kts | 217° |
| 2026-04-28 01:25 | 33.34928 | -110.55478 | 5393 ft | 92 kts | 239° |
| 2026-04-28 01:25 | 33.34711 | -110.56255 | 5247 ft | 107 kts | 266° |
| 2026-04-28 01:25 | 33.34743 | -110.57190 | 5041 ft | 116 kts | 270° |
| 2026-04-28 01:25 | 33.34775 | -110.58168 | 4829 ft | 118 kts | 271° |
| 2026-04-28 01:26 | 33.34805 | -110.59138 | 4639 ft | 115 kts | 270° |
| 2026-04-28 01:26 | 33.34833 | -110.60088 | 4446 ft | 118 kts | 270° |
| 2026-04-28 01:26 | 33.34860 | -110.61087 | 4236 ft | 119 kts | 267° |
| 2026-04-28 01:26 | 33.34890 | -110.62063 | 4052 ft | 112 kts | 269° |
| 2026-04-28 01:27 | 33.34909 | -110.62980 | 3818 ft | 107 kts | 266° |
| 2026-04-28 01:27 | 33.34924 | -110.63854 | 3588 ft | 103 kts | 269° |
| 2026-04-28 01:27 | 33.34981 | -110.64676 | 3373 ft | 95 kts | 273° |
| 2026-04-28 01:27 | 33.35086 | -110.65426 | 3227 ft | 87 kts | 278° |
| 2026-04-28 01:28 | 33.35197 | -110.66079 | 3172 ft | 64 kts | 282° |
| 2026-04-28 01:28 | 33.35264 | -110.66455 | 3181 ft | 39 kts | 279° |
| 2026-04-28 01:28 | 33.35315 | -110.66729 | 3188 ft | 29 kts | 282° |
| 2026-04-28 01:28 | 33.35348 | -110.66936 | 3197 ft | 22 kts | 281° |
| 2026-04-28 01:29 | 33.35415 | -110.67008 | 3201 ft | 14 kts | 12° |
| 2026-04-28 01:29 | 33.35502 | -110.67016 | 3206 ft | 12 kts | 354° |
| 2026-04-28 01:29 | 33.35533 | -110.67012 | 3202 ft | 0 kts | 11° |